sensor_id;sensor_type;location;lat;lon;timestamp;temperature;humidity
16955;DHT22;8594;52.052;8.354;2023-04-24T00:01:14;13.00;99.90
16955;DHT22;8594;52.052;8.354;2023-04-24T00:03:42;13.10;99.90
16955;DHT22;8594;52.052;8.354;2023-04-24T00:06:09;13.00;99.90
16955;DHT22;8594;52.052;8.354;2023-04-24T00:08:36;13.20;99.90
16955;DHT22;8594;52.052;8.354;2023-04-24T00:11:04;13.10;99.90
16955;DHT22;8594;52.052;8.354;2023-04-24T00:13:31;12.90;99.90
16955;DHT22;8594;52.052;8.354;2023-04-24T00:15:57;12.80;99.90
16955;DHT22;8594;52.052;8.354;2023-04-24T00:18:24;12.80;99.90
16955;DHT22;8594;52.052;8.354;2023-04-24T00:20:51;12.80;99.90
16955;DHT22;8594;52.052;8.354;2023-04-24T00:23:18;12.90;99.90
16955;DHT22;8594;52.052;8.354;2023-04-24T00:25:45;12.90;99.90
16955;DHT22;8594;52.052;8.354;2023-04-24T00:28:13;13.00;99.90
16955;DHT22;8594;52.052;8.354;2023-04-24T00:30:40;13.00;99.90
16955;DHT22;8594;52.052;8.354;2023-04-24T00:33:07;12.90;99.90
16955;DHT22;8594;52.052;8.354;2023-04-24T00:35:34;13.00;99.90
16955;DHT22;8594;52.052;8.354;2023-04-24T00:38:01;13.10;99.90
16955;DHT22;8594;52.052;8.354;2023-04-24T00:40:28;13.20;99.90
16955;DHT22;8594;52.052;8.354;2023-04-24T00:42:56;13.30;99.90
16955;DHT22;8594;52.052;8.354;2023-04-24T00:45:24;13.20;99.90
16955;DHT22;8594;52.052;8.354;2023-04-24T00:47:52;13.20;99.90
16955;DHT22;8594;52.052;8.354;2023-04-24T00:50:21;13.10;99.90
16955;DHT22;8594;52.052;8.354;2023-04-24T00:52:48;13.00;99.90
16955;DHT22;8594;52.052;8.354;2023-04-24T00:55:15;13.20;99.90
16955;DHT22;8594;52.052;8.354;2023-04-24T00:57:42;13.30;99.90
16955;DHT22;8594;52.052;8.354;2023-04-24T01:00:10;13.20;99.90
16955;DHT22;8594;52.052;8.354;2023-04-24T01:02:40;13.20;99.90
16955;DHT22;8594;52.052;8.354;2023-04-24T01:05:09;13.20;99.90
16955;DHT22;8594;52.052;8.354;2023-04-24T01:07:38;13.10;99.90
16955;DHT22;8594;52.052;8.354;2023-04-24T01:10:06;13.10;99.90
16955;DHT22;8594;52.052;8.354;2023-04-24T01:12:35;13.20;99.90
16955;DHT22;8594;52.052;8.354;2023-04-24T01:15:02;13.20;99.90
16955;DHT22;8594;52.052;8.354;2023-04-24T01:17:30;13.30;99.90
16955;DHT22;8594;52.052;8.354;2023-04-24T01:19:59;13.10;99.90
16955;DHT22;8594;52.052;8.354;2023-04-24T01:22:33;13.20;99.90
16955;DHT22;8594;52.052;8.354;2023-04-24T01:25:00;13.30;99.90
16955;DHT22;8594;52.052;8.354;2023-04-24T01:27:27;13.20;99.90
16955;DHT22;8594;52.052;8.354;2023-04-24T01:29:54;13.10;99.90
16955;DHT22;8594;52.052;8.354;2023-04-24T01:32:21;13.00;99.90
16955;DHT22;8594;52.052;8.354;2023-04-24T01:34:48;13.10;99.90
16955;DHT22;8594;52.052;8.354;2023-04-24T01:37:15;13.30;99.90
16955;DHT22;8594;52.052;8.354;2023-04-24T01:39:44;13.40;99.90
16955;DHT22;8594;52.052;8.354;2023-04-24T01:42:12;13.40;99.90
16955;DHT22;8594;52.052;8.354;2023-04-24T01:44:40;13.30;99.90
16955;DHT22;8594;52.052;8.354;2023-04-24T01:47:07;13.20;99.90
16955;DHT22;8594;52.052;8.354;2023-04-24T01:49:34;13.20;99.90
16955;DHT22;8594;52.052;8.354;2023-04-24T01:52:01;13.40;99.90
16955;DHT22;8594;52.052;8.354;2023-04-24T01:54:28;13.10;99.90
16955;DHT22;8594;52.052;8.354;2023-04-24T01:56:56;13.10;99.90
16955;DHT22;8594;52.052;8.354;2023-04-24T01:59:23;13.00;99.90
16955;DHT22;8594;52.052;8.354;2023-04-24T02:01:53;13.00;99.90
16955;DHT22;8594;52.052;8.354;2023-04-24T02:04:20;12.90;99.90
16955;DHT22;8594;52.052;8.354;2023-04-24T02:06:46;12.80;99.90
16955;DHT22;8594;52.052;8.354;2023-04-24T02:09:13;12.60;99.90
16955;DHT22;8594;52.052;8.354;2023-04-24T02:11:40;12.60;99.90
16955;DHT22;8594;52.052;8.354;2023-04-24T02:14:08;12.60;99.90
16955;DHT22;8594;52.052;8.354;2023-04-24T02:16:35;12.70;99.90
16955;DHT22;8594;52.052;8.354;2023-04-24T02:19:02;12.70;99.90
16955;DHT22;8594;52.052;8.354;2023-04-24T02:21:30;12.70;99.90
16955;DHT22;8594;52.052;8.354;2023-04-24T02:23:57;12.60;99.90
16955;DHT22;8594;52.052;8.354;2023-04-24T02:26:24;12.50;99.90
16955;DHT22;8594;52.052;8.354;2023-04-24T02:28:51;12.30;99.90
16955;DHT22;8594;52.052;8.354;2023-04-24T02:31:19;12.30;99.90
16955;DHT22;8594;52.052;8.354;2023-04-24T02:33:46;12.40;99.90
16955;DHT22;8594;52.052;8.354;2023-04-24T02:36:13;12.40;99.90
16955;DHT22;8594;52.052;8.354;2023-04-24T02:38:40;12.30;99.90
16955;DHT22;8594;52.052;8.354;2023-04-24T02:41:06;12.20;99.90
16955;DHT22;8594;52.052;8.354;2023-04-24T02:43:33;12.00;99.90
16955;DHT22;8594;52.052;8.354;2023-04-24T02:46:00;12.00;99.90
16955;DHT22;8594;52.052;8.354;2023-04-24T02:48:28;12.10;99.90
16955;DHT22;8594;52.052;8.354;2023-04-24T02:50:55;12.10;99.90
16955;DHT22;8594;52.052;8.354;2023-04-24T02:53:22;12.10;99.90
16955;DHT22;8594;52.052;8.354;2023-04-24T02:55:49;12.20;99.90
16955;DHT22;8594;52.052;8.354;2023-04-24T02:58:16;12.20;99.90
16955;DHT22;8594;52.052;8.354;2023-04-24T03:00:45;12.10;99.90
16955;DHT22;8594;52.052;8.354;2023-04-24T03:03:12;12.10;99.90
16955;DHT22;8594;52.052;8.354;2023-04-24T03:05:40;12.10;99.90
16955;DHT22;8594;52.052;8.354;2023-04-24T03:08:07;12.00;99.90
16955;DHT22;8594;52.052;8.354;2023-04-24T03:10:34;12.10;99.90
16955;DHT22;8594;52.052;8.354;2023-04-24T03:13:00;12.10;99.90
16955;DHT22;8594;52.052;8.354;2023-04-24T03:15:27;12.00;99.90
16955;DHT22;8594;52.052;8.354;2023-04-24T03:17:54;12.00;99.90
16955;DHT22;8594;52.052;8.354;2023-04-24T03:20:21;12.00;99.90
16955;DHT22;8594;52.052;8.354;2023-04-24T03:22:49;12.10;99.90
16955;DHT22;8594;52.052;8.354;2023-04-24T03:25:16;12.00;99.90
16955;DHT22;8594;52.052;8.354;2023-04-24T03:27:43;12.10;99.90
16955;DHT22;8594;52.052;8.354;2023-04-24T03:30:10;12.20;99.90
16955;DHT22;8594;52.052;8.354;2023-04-24T03:32:37;12.10;99.90
16955;DHT22;8594;52.052;8.354;2023-04-24T03:35:05;12.00;99.90
16955;DHT22;8594;52.052;8.354;2023-04-24T03:37:33;12.10;99.90
16955;DHT22;8594;52.052;8.354;2023-04-24T03:40:01;12.00;99.90
16955;DHT22;8594;52.052;8.354;2023-04-24T03:42:28;12.00;99.90
16955;DHT22;8594;52.052;8.354;2023-04-24T03:44:54;12.00;99.90
16955;DHT22;8594;52.052;8.354;2023-04-24T03:47:21;12.00;99.90
16955;DHT22;8594;52.052;8.354;2023-04-24T03:49:48;12.00;99.90
16955;DHT22;8594;52.052;8.354;2023-04-24T03:52:15;11.90;99.90
16955;DHT22;8594;52.052;8.354;2023-04-24T03:54:42;12.00;99.90
16955;DHT22;8594;52.052;8.354;2023-04-24T03:57:10;12.10;99.90
16955;DHT22;8594;52.052;8.354;2023-04-24T03:59:37;12.10;99.90
16955;DHT22;8594;52.052;8.354;2023-04-24T04:02:03;11.90;99.90
16955;DHT22;8594;52.052;8.354;2023-04-24T04:04:30;12.00;99.90
16955;DHT22;8594;52.052;8.354;2023-04-24T04:06:57;12.00;99.90
16955;DHT22;8594;52.052;8.354;2023-04-24T04:09:26;11.80;99.90
16955;DHT22;8594;52.052;8.354;2023-04-24T04:11:53;11.80;99.90
16955;DHT22;8594;52.052;8.354;2023-04-24T04:14:21;11.80;99.90
16955;DHT22;8594;52.052;8.354;2023-04-24T04:16:48;11.90;99.90
16955;DHT22;8594;52.052;8.354;2023-04-24T04:19:15;12.00;99.90
16955;DHT22;8594;52.052;8.354;2023-04-24T04:21:42;11.90;99.90
16955;DHT22;8594;52.052;8.354;2023-04-24T04:24:11;11.70;99.90
16955;DHT22;8594;52.052;8.354;2023-04-24T04:26:38;11.80;99.90
16955;DHT22;8594;52.052;8.354;2023-04-24T04:29:06;11.80;99.90
16955;DHT22;8594;52.052;8.354;2023-04-24T04:31:34;11.70;99.90
16955;DHT22;8594;52.052;8.354;2023-04-24T04:34:02;11.60;99.90
16955;DHT22;8594;52.052;8.354;2023-04-24T04:36:29;11.40;99.90
16955;DHT22;8594;52.052;8.354;2023-04-24T04:38:55;11.30;99.90
16955;DHT22;8594;52.052;8.354;2023-04-24T04:41:24;11.20;99.90
16955;DHT22;8594;52.052;8.354;2023-04-24T04:43:51;11.10;99.90
16955;DHT22;8594;52.052;8.354;2023-04-24T04:46:18;11.00;99.90
16955;DHT22;8594;52.052;8.354;2023-04-24T04:48:46;10.80;99.90
16955;DHT22;8594;52.052;8.354;2023-04-24T04:51:13;10.90;99.90
16955;DHT22;8594;52.052;8.354;2023-04-24T04:53:40;10.70;99.90
16955;DHT22;8594;52.052;8.354;2023-04-24T04:56:06;10.70;99.90
16955;DHT22;8594;52.052;8.354;2023-04-24T04:58:33;10.80;99.90
16955;DHT22;8594;52.052;8.354;2023-04-24T05:01:00;10.90;99.90
16955;DHT22;8594;52.052;8.354;2023-04-24T05:03:27;10.80;99.90
16955;DHT22;8594;52.052;8.354;2023-04-24T05:05:56;10.90;99.90
16955;DHT22;8594;52.052;8.354;2023-04-24T05:08:23;11.00;99.90
16955;DHT22;8594;52.052;8.354;2023-04-24T05:10:50;10.70;99.90
16955;DHT22;8594;52.052;8.354;2023-04-24T05:13:17;10.80;99.90
16955;DHT22;8594;52.052;8.354;2023-04-24T05:15:44;11.00;99.90
16955;DHT22;8594;52.052;8.354;2023-04-24T05:18:11;11.20;99.90
16955;DHT22;8594;52.052;8.354;2023-04-24T05:20:37;11.30;99.90
16955;DHT22;8594;52.052;8.354;2023-04-24T05:23:06;11.40;99.90
16955;DHT22;8594;52.052;8.354;2023-04-24T05:25:32;11.40;99.90
16955;DHT22;8594;52.052;8.354;2023-04-24T05:28:00;11.30;99.90
16955;DHT22;8594;52.052;8.354;2023-04-24T05:30:27;11.30;99.90
16955;DHT22;8594;52.052;8.354;2023-04-24T05:32:54;11.40;99.90
16955;DHT22;8594;52.052;8.354;2023-04-24T05:35:21;11.40;99.90
16955;DHT22;8594;52.052;8.354;2023-04-24T05:37:48;11.40;99.90
16955;DHT22;8594;52.052;8.354;2023-04-24T05:40:16;11.50;99.90
16955;DHT22;8594;52.052;8.354;2023-04-24T05:42:43;11.50;99.90
16955;DHT22;8594;52.052;8.354;2023-04-24T05:45:10;11.40;99.90
16955;DHT22;8594;52.052;8.354;2023-04-24T05:47:41;11.50;99.90
16955;DHT22;8594;52.052;8.354;2023-04-24T05:50:09;11.50;99.90
16955;DHT22;8594;52.052;8.354;2023-04-24T05:52:36;11.50;99.90
16955;DHT22;8594;52.052;8.354;2023-04-24T05:55:03;11.30;99.90
16955;DHT22;8594;52.052;8.354;2023-04-24T05:57:32;11.50;99.90
16955;DHT22;8594;52.052;8.354;2023-04-24T05:59:59;11.50;99.90
16955;DHT22;8594;52.052;8.354;2023-04-24T06:02:26;11.50;99.90
16955;DHT22;8594;52.052;8.354;2023-04-24T06:04:53;11.40;99.90
16955;DHT22;8594;52.052;8.354;2023-04-24T06:07:20;11.40;99.90
16955;DHT22;8594;52.052;8.354;2023-04-24T06:09:47;11.30;99.90
16955;DHT22;8594;52.052;8.354;2023-04-24T06:12:14;11.30;99.90
16955;DHT22;8594;52.052;8.354;2023-04-24T06:14:42;11.40;99.90
16955;DHT22;8594;52.052;8.354;2023-04-24T06:17:09;11.60;99.90
16955;DHT22;8594;52.052;8.354;2023-04-24T06:19:36;11.50;99.90
16955;DHT22;8594;52.052;8.354;2023-04-24T06:22:03;11.60;99.90
16955;DHT22;8594;52.052;8.354;2023-04-24T06:24:30;11.70;99.90
16955;DHT22;8594;52.052;8.354;2023-04-24T06:26:56;11.70;99.90
16955;DHT22;8594;52.052;8.354;2023-04-24T06:29:25;11.60;99.90
16955;DHT22;8594;52.052;8.354;2023-04-24T06:31:53;11.60;99.90
16955;DHT22;8594;52.052;8.354;2023-04-24T06:34:20;11.50;99.90
16955;DHT22;8594;52.052;8.354;2023-04-24T06:36:47;11.50;99.90
16955;DHT22;8594;52.052;8.354;2023-04-24T06:39:14;11.40;99.90
16955;DHT22;8594;52.052;8.354;2023-04-24T06:41:40;11.50;99.90
16955;DHT22;8594;52.052;8.354;2023-04-24T06:44:07;11.50;99.90
16955;DHT22;8594;52.052;8.354;2023-04-24T06:46:34;11.50;99.90
16955;DHT22;8594;52.052;8.354;2023-04-24T06:49:03;11.50;99.90
16955;DHT22;8594;52.052;8.354;2023-04-24T06:51:29;11.60;99.90
16955;DHT22;8594;52.052;8.354;2023-04-24T06:53:58;11.70;99.90
16955;DHT22;8594;52.052;8.354;2023-04-24T06:56:26;11.70;99.90
16955;DHT22;8594;52.052;8.354;2023-04-24T06:58:54;11.60;99.90
16955;DHT22;8594;52.052;8.354;2023-04-24T07:01:21;11.40;99.90
16955;DHT22;8594;52.052;8.354;2023-04-24T07:03:48;11.30;99.90
16955;DHT22;8594;52.052;8.354;2023-04-24T07:06:16;11.40;99.90
16955;DHT22;8594;52.052;8.354;2023-04-24T07:08:44;11.50;99.90
16955;DHT22;8594;52.052;8.354;2023-04-24T07:11:10;11.50;99.90
16955;DHT22;8594;52.052;8.354;2023-04-24T07:13:37;11.30;99.90
16955;DHT22;8594;52.052;8.354;2023-04-24T07:16:07;11.40;99.90
16955;DHT22;8594;52.052;8.354;2023-04-24T07:18:34;11.40;99.90
16955;DHT22;8594;52.052;8.354;2023-04-24T07:21:01;11.50;99.90
16955;DHT22;8594;52.052;8.354;2023-04-24T07:23:30;11.60;99.90
16955;DHT22;8594;52.052;8.354;2023-04-24T07:25:57;11.70;99.90
16955;DHT22;8594;52.052;8.354;2023-04-24T07:28:24;11.70;99.90
16955;DHT22;8594;52.052;8.354;2023-04-24T07:30:51;11.70;99.90
16955;DHT22;8594;52.052;8.354;2023-04-24T07:33:19;11.80;99.90
16955;DHT22;8594;52.052;8.354;2023-04-24T07:35:46;11.80;99.90
16955;DHT22;8594;52.052;8.354;2023-04-24T07:38:13;11.80;99.90
16955;DHT22;8594;52.052;8.354;2023-04-24T07:40:41;11.50;99.90
16955;DHT22;8594;52.052;8.354;2023-04-24T07:43:08;11.50;99.90
16955;DHT22;8594;52.052;8.354;2023-04-24T07:45:35;11.60;99.90
16955;DHT22;8594;52.052;8.354;2023-04-24T07:48:02;11.60;99.90
16955;DHT22;8594;52.052;8.354;2023-04-24T07:50:29;11.60;99.90
16955;DHT22;8594;52.052;8.354;2023-04-24T07:52:56;11.60;99.90
16955;DHT22;8594;52.052;8.354;2023-04-24T07:55:23;11.70;99.90
16955;DHT22;8594;52.052;8.354;2023-04-24T07:57:51;11.50;99.90
16955;DHT22;8594;52.052;8.354;2023-04-24T08:00:19;11.40;99.90
16955;DHT22;8594;52.052;8.354;2023-04-24T08:02:46;11.40;99.90
16955;DHT22;8594;52.052;8.354;2023-04-24T08:05:13;11.50;99.90
16955;DHT22;8594;52.052;8.354;2023-04-24T08:07:40;11.30;99.90
16955;DHT22;8594;52.052;8.354;2023-04-24T08:10:09;11.20;99.90
16955;DHT22;8594;52.052;8.354;2023-04-24T08:12:36;11.20;99.90
16955;DHT22;8594;52.052;8.354;2023-04-24T08:15:06;11.10;99.90
16955;DHT22;8594;52.052;8.354;2023-04-24T08:17:33;11.30;99.90
16955;DHT22;8594;52.052;8.354;2023-04-24T08:20:01;11.30;99.90
16955;DHT22;8594;52.052;8.354;2023-04-24T08:22:29;11.30;99.90
16955;DHT22;8594;52.052;8.354;2023-04-24T08:24:56;11.20;99.90
16955;DHT22;8594;52.052;8.354;2023-04-24T08:27:23;11.30;99.90
16955;DHT22;8594;52.052;8.354;2023-04-24T08:29:49;11.30;99.90
16955;DHT22;8594;52.052;8.354;2023-04-24T08:32:18;11.40;99.90
16955;DHT22;8594;52.052;8.354;2023-04-24T08:34:45;11.40;99.90
16955;DHT22;8594;52.052;8.354;2023-04-24T08:37:12;11.70;99.90
16955;DHT22;8594;52.052;8.354;2023-04-24T08:39:40;11.90;99.90
16955;DHT22;8594;52.052;8.354;2023-04-24T08:42:07;12.10;99.90
16955;DHT22;8594;52.052;8.354;2023-04-24T08:44:35;12.10;99.90
16955;DHT22;8594;52.052;8.354;2023-04-24T08:47:03;12.20;99.90
16955;DHT22;8594;52.052;8.354;2023-04-24T08:49:32;12.10;99.90
16955;DHT22;8594;52.052;8.354;2023-04-24T08:52:00;12.20;99.90
16955;DHT22;8594;52.052;8.354;2023-04-24T08:54:28;12.10;99.90
16955;DHT22;8594;52.052;8.354;2023-04-24T08:56:59;12.10;99.90
16955;DHT22;8594;52.052;8.354;2023-04-24T08:59:28;12.10;99.90
16955;DHT22;8594;52.052;8.354;2023-04-24T09:01:55;11.90;99.90
16955;DHT22;8594;52.052;8.354;2023-04-24T09:04:24;11.60;99.90
16955;DHT22;8594;52.052;8.354;2023-04-24T09:06:55;11.40;99.90
16955;DHT22;8594;52.052;8.354;2023-04-24T09:09:24;11.40;99.90
16955;DHT22;8594;52.052;8.354;2023-04-24T09:11:52;11.40;99.90
16955;DHT22;8594;52.052;8.354;2023-04-24T09:14:21;11.70;99.90
16955;DHT22;8594;52.052;8.354;2023-04-24T09:16:49;11.60;99.90
16955;DHT22;8594;52.052;8.354;2023-04-24T09:19:16;11.70;99.90
16955;DHT22;8594;52.052;8.354;2023-04-24T09:21:46;11.80;99.90
16955;DHT22;8594;52.052;8.354;2023-04-24T09:24:17;11.90;99.90
16955;DHT22;8594;52.052;8.354;2023-04-24T09:26:46;12.00;99.90
16955;DHT22;8594;52.052;8.354;2023-04-24T09:29:14;12.10;99.90
16955;DHT22;8594;52.052;8.354;2023-04-24T09:31:43;12.10;99.90
16955;DHT22;8594;52.052;8.354;2023-04-24T09:34:11;11.90;99.90
16955;DHT22;8594;52.052;8.354;2023-04-24T09:36:39;11.80;99.90
16955;DHT22;8594;52.052;8.354;2023-04-24T09:39:09;12.00;99.90
16955;DHT22;8594;52.052;8.354;2023-04-24T09:41:45;11.90;99.90
16955;DHT22;8594;52.052;8.354;2023-04-24T09:44:14;11.60;99.90
16955;DHT22;8594;52.052;8.354;2023-04-24T09:46:43;11.50;99.90
16955;DHT22;8594;52.052;8.354;2023-04-24T09:49:14;11.50;99.90
16955;DHT22;8594;52.052;8.354;2023-04-24T09:51:42;11.40;99.90
16955;DHT22;8594;52.052;8.354;2023-04-24T09:54:14;11.30;99.90
16955;DHT22;8594;52.052;8.354;2023-04-24T09:56:44;11.40;99.90
16955;DHT22;8594;52.052;8.354;2023-04-24T09:59:12;11.60;99.90
16955;DHT22;8594;52.052;8.354;2023-04-24T10:01:39;11.40;99.90
16955;DHT22;8594;52.052;8.354;2023-04-24T10:04:15;11.30;99.90
16955;DHT22;8594;52.052;8.354;2023-04-24T10:06:44;11.50;99.90
16955;DHT22;8594;52.052;8.354;2023-04-24T10:09:11;11.60;99.90
16955;DHT22;8594;52.052;8.354;2023-04-24T10:14:13;11.90;99.90
16955;DHT22;8594;52.052;8.354;2023-04-24T10:16:41;11.70;99.90
16955;DHT22;8594;52.052;8.354;2023-04-24T10:19:09;11.60;99.90
16955;DHT22;8594;52.052;8.354;2023-04-24T10:21:38;11.60;99.90
16955;DHT22;8594;52.052;8.354;2023-04-24T10:24:08;11.50;99.90
16955;DHT22;8594;52.052;8.354;2023-04-24T10:26:35;11.50;99.90
16955;DHT22;8594;52.052;8.354;2023-04-24T10:29:05;11.50;99.90
16955;DHT22;8594;52.052;8.354;2023-04-24T10:31:36;11.40;99.90
16955;DHT22;8594;52.052;8.354;2023-04-24T10:34:04;11.50;99.90
16955;DHT22;8594;52.052;8.354;2023-04-24T10:36:32;11.50;99.90
16955;DHT22;8594;52.052;8.354;2023-04-24T10:39:02;11.50;99.90
16955;DHT22;8594;52.052;8.354;2023-04-24T10:41:32;11.60;99.90
16955;DHT22;8594;52.052;8.354;2023-04-24T10:44:06;11.50;99.90
16955;DHT22;8594;52.052;8.354;2023-04-24T10:46:37;11.40;99.90
16955;DHT22;8594;52.052;8.354;2023-04-24T10:49:05;11.40;99.90
16955;DHT22;8594;52.052;8.354;2023-04-24T10:51:46;11.40;99.90
16955;DHT22;8594;52.052;8.354;2023-04-24T10:54:24;11.10;99.90
16955;DHT22;8594;52.052;8.354;2023-04-24T10:56:53;11.20;99.90
16955;DHT22;8594;52.052;8.354;2023-04-24T10:59:40;11.10;99.90
16955;DHT22;8594;52.052;8.354;2023-04-24T11:02:08;11.10;99.90
16955;DHT22;8594;52.052;8.354;2023-04-24T11:04:35;11.00;99.90
16955;DHT22;8594;52.052;8.354;2023-04-24T11:07:03;11.20;99.90
16955;DHT22;8594;52.052;8.354;2023-04-24T11:09:31;11.30;99.90
16955;DHT22;8594;52.052;8.354;2023-04-24T11:12:04;11.20;99.90
16955;DHT22;8594;52.052;8.354;2023-04-24T11:15:00;11.40;99.90
16955;DHT22;8594;52.052;8.354;2023-04-24T11:17:33;11.50;99.90
16955;DHT22;8594;52.052;8.354;2023-04-24T11:20:03;11.40;99.90
16955;DHT22;8594;52.052;8.354;2023-04-24T11:22:33;11.10;99.90
16955;DHT22;8594;52.052;8.354;2023-04-24T11:25:02;11.00;99.90
16955;DHT22;8594;52.052;8.354;2023-04-24T11:27:30;10.90;99.90
16955;DHT22;8594;52.052;8.354;2023-04-24T11:30:00;11.00;99.90
16955;DHT22;8594;52.052;8.354;2023-04-24T11:32:29;10.80;99.90
16955;DHT22;8594;52.052;8.354;2023-04-24T11:35:04;10.80;99.90
16955;DHT22;8594;52.052;8.354;2023-04-24T11:37:34;10.40;99.90
16955;DHT22;8594;52.052;8.354;2023-04-24T11:40:03;10.50;99.90
16955;DHT22;8594;52.052;8.354;2023-04-24T11:42:35;10.50;99.90
16955;DHT22;8594;52.052;8.354;2023-04-24T11:45:08;10.60;99.90
16955;DHT22;8594;52.052;8.354;2023-04-24T11:47:37;10.60;99.90
16955;DHT22;8594;52.052;8.354;2023-04-24T11:50:07;10.60;99.90
16955;DHT22;8594;52.052;8.354;2023-04-24T11:52:38;10.60;99.90
16955;DHT22;8594;52.052;8.354;2023-04-24T11:55:07;10.70;99.90
16955;DHT22;8594;52.052;8.354;2023-04-24T11:57:35;10.80;99.90
16955;DHT22;8594;52.052;8.354;2023-04-24T12:00:03;10.70;99.90
16955;DHT22;8594;52.052;8.354;2023-04-24T12:02:31;10.70;99.90
16955;DHT22;8594;52.052;8.354;2023-04-24T12:04:59;10.60;99.90
16955;DHT22;8594;52.052;8.354;2023-04-24T12:07:26;10.60;99.90
16955;DHT22;8594;52.052;8.354;2023-04-24T12:09:58;10.70;99.90
16955;DHT22;8594;52.052;8.354;2023-04-24T12:12:27;10.40;99.90
16955;DHT22;8594;52.052;8.354;2023-04-24T12:14:55;10.30;99.90
16955;DHT22;8594;52.052;8.354;2023-04-24T12:17:27;10.20;99.90
16955;DHT22;8594;52.052;8.354;2023-04-24T12:20:01;10.10;99.90
16955;DHT22;8594;52.052;8.354;2023-04-24T12:22:43;10.10;99.90
16955;DHT22;8594;52.052;8.354;2023-04-24T12:25:12;10.30;99.90
16955;DHT22;8594;52.052;8.354;2023-04-24T12:27:40;10.50;99.90
16955;DHT22;8594;52.052;8.354;2023-04-24T12:30:12;10.50;99.90
16955;DHT22;8594;52.052;8.354;2023-04-24T12:32:45;10.60;99.90
16955;DHT22;8594;52.052;8.354;2023-04-24T12:35:19;10.70;99.90
16955;DHT22;8594;52.052;8.354;2023-04-24T12:37:47;10.70;99.90
16955;DHT22;8594;52.052;8.354;2023-04-24T12:40:14;10.80;99.90
16955;DHT22;8594;52.052;8.354;2023-04-24T12:42:43;10.50;99.90
16955;DHT22;8594;52.052;8.354;2023-04-24T12:45:12;10.50;99.90
16955;DHT22;8594;52.052;8.354;2023-04-24T12:47:40;10.40;99.90
16955;DHT22;8594;52.052;8.354;2023-04-24T12:50:09;10.50;99.90
16955;DHT22;8594;52.052;8.354;2023-04-24T12:52:38;10.40;99.90
16955;DHT22;8594;52.052;8.354;2023-04-24T12:55:06;10.40;99.90
16955;DHT22;8594;52.052;8.354;2023-04-24T12:57:35;10.40;99.90
16955;DHT22;8594;52.052;8.354;2023-04-24T13:00:04;10.40;99.90
16955;DHT22;8594;52.052;8.354;2023-04-24T13:02:33;10.50;99.90
16955;DHT22;8594;52.052;8.354;2023-04-24T13:05:01;10.30;99.90
16955;DHT22;8594;52.052;8.354;2023-04-24T13:07:28;10.50;99.90
16955;DHT22;8594;52.052;8.354;2023-04-24T13:09:56;10.30;99.90
16955;DHT22;8594;52.052;8.354;2023-04-24T13:12:24;10.40;99.90
16955;DHT22;8594;52.052;8.354;2023-04-24T13:14:51;10.50;99.90
16955;DHT22;8594;52.052;8.354;2023-04-24T13:17:18;10.40;99.90
16955;DHT22;8594;52.052;8.354;2023-04-24T13:19:45;10.50;99.90
16955;DHT22;8594;52.052;8.354;2023-04-24T13:22:12;10.40;99.90
16955;DHT22;8594;52.052;8.354;2023-04-24T13:42:35;9.60;99.90
16955;DHT22;8594;52.052;8.354;2023-04-24T13:45:02;10.20;99.90
16955;DHT22;8594;52.052;8.354;2023-04-24T13:47:29;10.40;99.90
16955;DHT22;8594;52.052;8.354;2023-04-24T13:49:56;10.60;99.90
16955;DHT22;8594;52.052;8.354;2023-04-24T13:52:23;10.60;99.90
16955;DHT22;8594;52.052;8.354;2023-04-24T13:54:50;10.70;99.90
16955;DHT22;8594;52.052;8.354;2023-04-24T13:57:17;10.80;99.90
16955;DHT22;8594;52.052;8.354;2023-04-24T13:59:45;10.80;99.90
16955;DHT22;8594;52.052;8.354;2023-04-24T14:02:12;10.80;99.90
16955;DHT22;8594;52.052;8.354;2023-04-24T14:04:39;10.80;99.90
16955;DHT22;8594;52.052;8.354;2023-04-24T14:07:06;11.00;99.90
16955;DHT22;8594;52.052;8.354;2023-04-24T14:09:33;11.00;99.90
16955;DHT22;8594;52.052;8.354;2023-04-24T14:12:00;11.20;99.90
16955;DHT22;8594;52.052;8.354;2023-04-24T14:14:28;11.30;99.90
16955;DHT22;8594;52.052;8.354;2023-04-24T14:16:57;11.50;99.90
16955;DHT22;8594;52.052;8.354;2023-04-24T14:19:24;11.60;99.90
16955;DHT22;8594;52.052;8.354;2023-04-24T14:21:51;11.40;99.90
16955;DHT22;8594;52.052;8.354;2023-04-24T14:24:18;11.30;99.90
16955;DHT22;8594;52.052;8.354;2023-04-24T14:26:45;11.20;99.90
16955;DHT22;8594;52.052;8.354;2023-04-24T14:29:12;11.30;99.90
16955;DHT22;8594;52.052;8.354;2023-04-24T14:31:39;11.20;99.90
16955;DHT22;8594;52.052;8.354;2023-04-24T14:34:07;11.00;99.90
16955;DHT22;8594;52.052;8.354;2023-04-24T14:36:34;11.10;99.90
16955;DHT22;8594;52.052;8.354;2023-04-24T14:39:01;11.10;99.90
16955;DHT22;8594;52.052;8.354;2023-04-24T14:41:31;11.00;99.90
16955;DHT22;8594;52.052;8.354;2023-04-24T14:44:01;10.90;99.90
16955;DHT22;8594;52.052;8.354;2023-04-24T14:46:28;10.90;99.90
16955;DHT22;8594;52.052;8.354;2023-04-24T14:48:55;10.80;99.90
16955;DHT22;8594;52.052;8.354;2023-04-24T14:51:24;10.90;99.90
16955;DHT22;8594;52.052;8.354;2023-04-24T14:53:52;10.70;99.90
16955;DHT22;8594;52.052;8.354;2023-04-24T14:56:19;10.80;99.90
16955;DHT22;8594;52.052;8.354;2023-04-24T14:58:46;11.00;99.90
16955;DHT22;8594;52.052;8.354;2023-04-24T15:01:13;11.10;99.90
16955;DHT22;8594;52.052;8.354;2023-04-24T15:03:40;11.00;99.90
16955;DHT22;8594;52.052;8.354;2023-04-24T15:06:07;11.10;99.90
16955;DHT22;8594;52.052;8.354;2023-04-24T15:08:35;11.10;99.90
16955;DHT22;8594;52.052;8.354;2023-04-24T15:11:02;11.10;99.90
16955;DHT22;8594;52.052;8.354;2023-04-24T15:13:32;10.90;99.90
16955;DHT22;8594;52.052;8.354;2023-04-24T15:15:59;11.10;99.90
16955;DHT22;8594;52.052;8.354;2023-04-24T15:18:25;11.00;99.90
16955;DHT22;8594;52.052;8.354;2023-04-24T15:20:54;10.90;99.90
16955;DHT22;8594;52.052;8.354;2023-04-24T15:23:21;11.00;99.90
16955;DHT22;8594;52.052;8.354;2023-04-24T15:25:49;11.10;99.90
16955;DHT22;8594;52.052;8.354;2023-04-24T15:28:16;11.00;99.90
16955;DHT22;8594;52.052;8.354;2023-04-24T15:30:43;11.00;99.90
16955;DHT22;8594;52.052;8.354;2023-04-24T15:33:10;10.90;99.90
16955;DHT22;8594;52.052;8.354;2023-04-24T15:35:36;10.90;99.90
16955;DHT22;8594;52.052;8.354;2023-04-24T15:38:03;11.00;99.90
16955;DHT22;8594;52.052;8.354;2023-04-24T15:40:30;11.30;99.90
16955;DHT22;8594;52.052;8.354;2023-04-24T15:42:58;11.30;99.90
16955;DHT22;8594;52.052;8.354;2023-04-24T15:45:25;11.00;99.90
16955;DHT22;8594;52.052;8.354;2023-04-24T15:47:52;11.10;99.90
16955;DHT22;8594;52.052;8.354;2023-04-24T15:50:19;10.90;99.90
16955;DHT22;8594;52.052;8.354;2023-04-24T15:52:47;10.70;99.90
16955;DHT22;8594;52.052;8.354;2023-04-24T15:55:14;10.70;99.90
16955;DHT22;8594;52.052;8.354;2023-04-24T15:57:41;10.80;99.90
16955;DHT22;8594;52.052;8.354;2023-04-24T16:00:11;10.70;99.90
16955;DHT22;8594;52.052;8.354;2023-04-24T16:02:39;10.80;99.90
16955;DHT22;8594;52.052;8.354;2023-04-24T16:05:06;10.80;99.90
16955;DHT22;8594;52.052;8.354;2023-04-24T16:07:34;10.70;99.90
16955;DHT22;8594;52.052;8.354;2023-04-24T16:10:01;10.60;99.90